Бреды (Старый)

Карта отелей и гостиниц, располагающихся рядом с аэропортом Бреды (Старый) :

Бреды (Старый) Челябинская область 52° 25' 17.148" N, 60° 21' 32.184" E
Бреды (Старый) Челябинская область 52° 25' 17.148" N, 60° 21' 32.184" E
Код аэродрома ИКАО: 
ZE76
Код аэродрома RU: 
ЗЕ76
Координаты: 
N52.42143° E060.35894°
Превышение над уровнем моря : 
310
Основная полоса: 
09/27
Курс магнитный: 
093,1/273,1
Длина основной ВПП: 
700
Ширина основной ВПП: 
100
Покрытие основной ВПП: 
Нетвёрдое (грунт)
Тип: 
Аэродром
Освещение ВПП: 
Нет
Класс аэродрома: 
Статус: 
Недействующий
Принадлежность: 
ГА
Сайт: 
E-mail аэродрома: 
Страна: 
Россия
Регион: 
Челябинская область
Город: 
Дополнительная информация: 
По данным Сборника №2 АНИ по МВЛ Уральского управления ГА (изд. 1981). Останки ГВПП 09/27 видны на спутниковых снимках.

Найти трансфер

С помощью этой формы Вы можете найти трансфер из аэропорта Бреды (Старый) в город, аэропорт или вокзал:

Карта места

Javascript is required to view this map.

Погода в аэропортах:

Авиационная погода в Москве - Остафьево

Регион: 
Погода METAR: 
UUMO 141730Z 04010MPS 9999 -TSRA BKN011CB 17/17 Q0999 R08/250350 NOSIG RMK QFE735/0980
Время наблюдения: 
2020-07-14T17:30:00Z
Температура C: 
17.0
Точка росы: 
17.0
Направление ветра: 
40
Скорость ветра: 
19
Метеорологическая видимость: 
6.21
Явления погоды: 
-TSRA
Условия полета: 
MVFR
Аэропорт подробнее: 

Авиационная погода в Москва - Домодедово

Регион: 
Погода METAR: 
UUDD 141730Z 04007MPS 9999 -SHRA SCT005 BKN033CB 18/16 Q0999 R32L/290042 NOSIG
Время наблюдения: 
2020-07-14T17:30:00Z
Температура C: 
18.0
Точка росы: 
16.0
Направление ветра: 
40
Скорость ветра: 
14
Метеорологическая видимость: 
6.21
Явления погоды: 
-SHRA
Условия полета: 
VFR
Аэропорт подробнее: 

Авиационная погода в Москва - Шереметьево

Регион: 
Погода METAR: 
UUEE 141730Z 03008G13MPS 7000 -SHRA BKN020CB 16/14 Q1003 RETSRA R06R/290251 TEMPO 02011G19MPS 1000 TSRA
Время наблюдения: 
2020-07-14T17:30:00Z
Температура C: 
16.0
Точка росы: 
14.0
Направление ветра: 
30
Скорость ветра: 
16
Метеорологическая видимость: 
4.35
Явления погоды: 
-SHRA
Условия полета: 
MVFR
Аэропорт подробнее: 

Авиационная погода в аэропорту Алыкель

Регион: 
Погода METAR: 
UOOO 141800Z 30005MPS 0300 0250S FG VV002 10/09 Q1008 R19/15//57 NOSIG RMK QFE740/0986
Время наблюдения: 
2020-07-14T18:00:00Z
Температура C: 
10.0
Точка росы: 
9.0
Направление ветра: 
300
Скорость ветра: 
10
Метеорологическая видимость: 
0.19
Явления погоды: 
FG
Условия полета: 
LIFR
Аэропорт подробнее: